sensor_id;sensor_type;location;lat;lon;timestamp;temperature;humidity
72128;DHT22;60000;51.030;7.024;2023-09-18T00:02:06;19.68;82.89
72128;DHT22;60000;51.030;7.024;2023-09-18T00:04:31;19.63;82.86
72128;DHT22;60000;51.030;7.024;2023-09-18T00:06:57;19.57;83.04
72128;DHT22;60000;51.030;7.024;2023-09-18T00:09:22;19.55;83.44
72128;DHT22;60000;51.030;7.024;2023-09-18T00:11:47;19.51;83.36
72128;DHT22;60000;51.030;7.024;2023-09-18T00:14:13;19.46;83.57
72128;DHT22;60000;51.030;7.024;2023-09-18T00:16:38;19.43;83.93
72128;DHT22;60000;51.030;7.024;2023-09-18T00:19:04;19.37;83.81
72128;DHT22;60000;51.030;7.024;2023-09-18T00:21:31;19.36;83.94
72128;DHT22;60000;51.030;7.024;2023-09-18T00:23:57;19.31;84.04
72128;DHT22;60000;51.030;7.024;2023-09-18T00:26:24;19.28;84.35
72128;DHT22;60000;51.030;7.024;2023-09-18T00:28:49;19.26;84.20
72128;DHT22;60000;51.030;7.024;2023-09-18T00:31:15;19.23;84.25
72128;DHT22;60000;51.030;7.024;2023-09-18T00:33:40;19.19;84.67
72128;DHT22;60000;51.030;7.024;2023-09-18T00:36:05;19.17;84.73
72128;DHT22;60000;51.030;7.024;2023-09-18T00:38:31;19.16;84.85
72128;DHT22;60000;51.030;7.024;2023-09-18T00:40:56;19.12;85.11
72128;DHT22;60000;51.030;7.024;2023-09-18T00:43:21;19.09;85.46
72128;DHT22;60000;51.030;7.024;2023-09-18T00:45:48;19.05;85.28
72128;DHT22;60000;51.030;7.024;2023-09-18T00:48:16;18.98;85.42
72128;DHT22;60000;51.030;7.024;2023-09-18T00:50:45;18.98;85.49
72128;DHT22;60000;51.030;7.024;2023-09-18T00:53:15;19.02;85.89
72128;DHT22;60000;51.030;7.024;2023-09-18T00:55:41;19.03;85.85
72128;DHT22;60000;51.030;7.024;2023-09-18T00:58:07;19.02;85.70
72128;DHT22;60000;51.030;7.024;2023-09-18T01:00:32;19.02;85.83
72128;DHT22;60000;51.030;7.024;2023-09-18T01:02:58;18.99;85.76
72128;DHT22;60000;51.030;7.024;2023-09-18T01:05:23;18.98;85.62
72128;DHT22;60000;51.030;7.024;2023-09-18T01:07:49;18.95;85.60
72128;DHT22;60000;51.030;7.024;2023-09-18T01:10:14;18.96;85.98
72128;DHT22;60000;51.030;7.024;2023-09-18T01:15:26;18.98;85.90
72128;DHT22;60000;51.030;7.024;2023-09-18T01:17:52;18.96;86.15
72128;DHT22;60000;51.030;7.024;2023-09-18T01:20:18;18.95;86.10
72128;DHT22;60000;51.030;7.024;2023-09-18T01:22:43;18.91;86.02
72128;DHT22;60000;51.030;7.024;2023-09-18T01:25:09;18.94;86.29
72128;DHT22;60000;51.030;7.024;2023-09-18T01:27:34;18.94;86.47
72128;DHT22;60000;51.030;7.024;2023-09-18T01:29:59;18.96;86.50
72128;DHT22;60000;51.030;7.024;2023-09-18T01:32:27;18.95;86.38
72128;DHT22;60000;51.030;7.024;2023-09-18T01:34:57;18.98;86.22
72128;DHT22;60000;51.030;7.024;2023-09-18T01:37:24;18.98;86.08
72128;DHT22;60000;51.030;7.024;2023-09-18T01:39:51;18.98;86.06
72128;DHT22;60000;51.030;7.024;2023-09-18T01:42:17;18.96;86.05
72128;DHT22;60000;51.030;7.024;2023-09-18T01:44:44;18.99;86.00
72128;DHT22;60000;51.030;7.024;2023-09-18T01:47:12;19.05;85.81
72128;DHT22;60000;51.030;7.024;2023-09-18T01:49:40;19.09;85.49
72128;DHT22;60000;51.030;7.024;2023-09-18T01:52:07;19.10;85.28
72128;DHT22;60000;51.030;7.024;2023-09-18T01:54:33;19.17;84.95
72128;DHT22;60000;51.030;7.024;2023-09-18T01:56:59;19.22;84.73
72128;DHT22;60000;51.030;7.024;2023-09-18T01:59:25;19.27;84.54
72128;DHT22;60000;51.030;7.024;2023-09-18T02:01:52;19.30;84.23
72128;DHT22;60000;51.030;7.024;2023-09-18T02:04:17;19.31;84.14
72128;DHT22;60000;51.030;7.024;2023-09-18T02:06:43;19.34;83.88
72128;DHT22;60000;51.030;7.024;2023-09-18T02:09:09;19.41;83.69
72128;DHT22;60000;51.030;7.024;2023-09-18T02:11:45;19.46;83.47
72128;DHT22;60000;51.030;7.024;2023-09-18T02:14:11;19.47;83.29
72128;DHT22;60000;51.030;7.024;2023-09-18T02:16:38;19.53;82.97
72128;DHT22;60000;51.030;7.024;2023-09-18T02:19:06;19.58;82.76
72128;DHT22;60000;51.030;7.024;2023-09-18T02:21:32;19.61;82.57
72128;DHT22;60000;51.030;7.024;2023-09-18T02:23:57;19.70;82.55
72128;DHT22;60000;51.030;7.024;2023-09-18T02:26:23;19.77;82.08
72128;DHT22;60000;51.030;7.024;2023-09-18T02:28:51;19.85;81.63
72128;DHT22;60000;51.030;7.024;2023-09-18T02:31:16;19.98;81.12
72128;DHT22;60000;51.030;7.024;2023-09-18T02:33:42;20.11;80.65
72128;DHT22;60000;51.030;7.024;2023-09-18T02:36:08;20.21;80.27
72128;DHT22;60000;51.030;7.024;2023-09-18T02:38:33;20.28;79.94
72128;DHT22;60000;51.030;7.024;2023-09-18T02:40:59;20.39;79.33
72128;DHT22;60000;51.030;7.024;2023-09-18T02:43:25;20.46;79.16
72128;DHT22;60000;51.030;7.024;2023-09-18T02:45:50;20.50;79.13
72128;DHT22;60000;51.030;7.024;2023-09-18T02:48:16;20.54;79.14
72128;DHT22;60000;51.030;7.024;2023-09-18T02:50:42;20.57;79.14
72128;DHT22;60000;51.030;7.024;2023-09-18T02:53:16;20.62;79.15
72128;DHT22;60000;51.030;7.024;2023-09-18T02:55:42;20.59;79.36
72128;DHT22;60000;51.030;7.024;2023-09-18T02:58:07;20.54;79.74
72128;DHT22;60000;51.030;7.024;2023-09-18T03:00:34;20.52;80.05
72128;DHT22;60000;51.030;7.024;2023-09-18T03:02:59;20.47;80.19
72128;DHT22;60000;51.030;7.024;2023-09-18T03:05:25;20.47;80.35
72128;DHT22;60000;51.030;7.024;2023-09-18T03:07:51;20.43;80.39
72128;DHT22;60000;51.030;7.024;2023-09-18T03:10:17;20.45;80.54
72128;DHT22;60000;51.030;7.024;2023-09-18T03:12:43;20.45;80.56
72128;DHT22;60000;51.030;7.024;2023-09-18T03:15:12;20.42;80.79
72128;DHT22;60000;51.030;7.024;2023-09-18T03:17:37;20.43;80.88
72128;DHT22;60000;51.030;7.024;2023-09-18T03:20:03;20.40;81.02
72128;DHT22;60000;51.030;7.024;2023-09-18T03:22:28;20.37;81.26
72128;DHT22;60000;51.030;7.024;2023-09-18T03:24:54;20.37;81.74
72128;DHT22;60000;51.030;7.024;2023-09-18T03:27:19;20.32;81.79
72128;DHT22;60000;51.030;7.024;2023-09-18T03:29:44;20.29;82.05
72128;DHT22;60000;51.030;7.024;2023-09-18T03:32:09;20.25;82.45
72128;DHT22;60000;51.030;7.024;2023-09-18T03:34:38;20.25;82.67
72128;DHT22;60000;51.030;7.024;2023-09-18T03:37:03;20.22;83.11
72128;DHT22;60000;51.030;7.024;2023-09-18T03:39:28;20.18;83.48
72128;DHT22;60000;51.030;7.024;2023-09-18T03:41:54;20.15;83.67
72128;DHT22;60000;51.030;7.024;2023-09-18T03:44:19;20.12;83.97
72128;DHT22;60000;51.030;7.024;2023-09-18T03:46:44;20.08;83.99
72128;DHT22;60000;51.030;7.024;2023-09-18T03:49:09;20.04;84.26
72128;DHT22;60000;51.030;7.024;2023-09-18T03:51:35;20.02;84.45
72128;DHT22;60000;51.030;7.024;2023-09-18T03:54:00;20.01;84.57
72128;DHT22;60000;51.030;7.024;2023-09-18T03:56:25;19.98;84.71
72128;DHT22;60000;51.030;7.024;2023-09-18T03:58:51;19.99;84.82
72128;DHT22;60000;51.030;7.024;2023-09-18T04:01:16;19.98;84.87
72128;DHT22;60000;51.030;7.024;2023-09-18T04:03:42;19.98;84.97
72128;DHT22;60000;51.030;7.024;2023-09-18T04:06:07;19.98;85.04
72128;DHT22;60000;51.030;7.024;2023-09-18T04:08:32;19.96;85.06
72128;DHT22;60000;51.030;7.024;2023-09-18T04:10:58;19.95;85.17
72128;DHT22;60000;51.030;7.024;2023-09-18T04:13:24;19.95;85.22
72128;DHT22;60000;51.030;7.024;2023-09-18T04:15:49;19.95;85.33
72128;DHT22;60000;51.030;7.024;2023-09-18T04:18:14;19.92;85.42
72128;DHT22;60000;51.030;7.024;2023-09-18T04:20:40;19.94;85.49
72128;DHT22;60000;51.030;7.024;2023-09-18T04:23:21;19.91;85.54
72128;DHT22;60000;51.030;7.024;2023-09-18T04:25:47;19.92;85.53
72128;DHT22;60000;51.030;7.024;2023-09-18T04:28:14;19.91;85.46
72128;DHT22;60000;51.030;7.024;2023-09-18T04:30:39;19.89;85.49
72128;DHT22;60000;51.030;7.024;2023-09-18T04:33:04;19.85;85.60
72128;DHT22;60000;51.030;7.024;2023-09-18T04:35:30;19.85;85.65
72128;DHT22;60000;51.030;7.024;2023-09-18T04:37:59;19.85;85.74
72128;DHT22;60000;51.030;7.024;2023-09-18T04:40:25;19.84;85.76
72128;DHT22;60000;51.030;7.024;2023-09-18T04:42:52;19.82;85.79
72128;DHT22;60000;51.030;7.024;2023-09-18T04:45:17;19.79;85.82
72128;DHT22;60000;51.030;7.024;2023-09-18T04:47:43;19.79;85.83
72128;DHT22;60000;51.030;7.024;2023-09-18T04:50:08;19.75;85.87
72128;DHT22;60000;51.030;7.024;2023-09-18T04:52:37;19.73;85.87
72128;DHT22;60000;51.030;7.024;2023-09-18T04:55:03;19.71;85.83
72128;DHT22;60000;51.030;7.024;2023-09-18T04:57:31;19.70;85.89
72128;DHT22;60000;51.030;7.024;2023-09-18T04:59:56;19.71;85.87
72128;DHT22;60000;51.030;7.024;2023-09-18T05:02:21;19.68;85.84
72128;DHT22;60000;51.030;7.024;2023-09-18T05:04:46;19.68;85.90
72128;DHT22;60000;51.030;7.024;2023-09-18T05:07:12;19.67;85.83
72128;DHT22;60000;51.030;7.024;2023-09-18T05:09:37;19.64;85.92
72128;DHT22;60000;51.030;7.024;2023-09-18T05:12:04;19.61;85.89
72128;DHT22;60000;51.030;7.024;2023-09-18T05:14:30;19.61;85.90
72128;DHT22;60000;51.030;7.024;2023-09-18T05:16:55;19.60;85.96
72128;DHT22;60000;51.030;7.024;2023-09-18T05:19:20;19.58;85.98
72128;DHT22;60000;51.030;7.024;2023-09-18T05:21:46;19.60;85.99
72128;DHT22;60000;51.030;7.024;2023-09-18T05:24:13;19.60;85.99
72128;DHT22;60000;51.030;7.024;2023-09-18T05:26:38;19.57;85.96
72128;DHT22;60000;51.030;7.024;2023-09-18T05:29:03;19.61;85.91
72128;DHT22;60000;51.030;7.024;2023-09-18T05:31:29;19.60;85.91
72128;DHT22;60000;51.030;7.024;2023-09-18T05:33:55;19.55;85.90
72128;DHT22;60000;51.030;7.024;2023-09-18T05:36:21;19.55;85.91
72128;DHT22;60000;51.030;7.024;2023-09-18T05:38:46;19.57;85.86
72128;DHT22;60000;51.030;7.024;2023-09-18T05:41:11;19.53;85.82
72128;DHT22;60000;51.030;7.024;2023-09-18T05:43:37;19.53;85.84
72128;DHT22;60000;51.030;7.024;2023-09-18T05:46:02;19.55;85.88
72128;DHT22;60000;51.030;7.024;2023-09-18T05:48:27;19.57;85.99
72128;DHT22;60000;51.030;7.024;2023-09-18T05:50:53;19.54;85.95
72128;DHT22;60000;51.030;7.024;2023-09-18T05:53:20;19.55;85.92
72128;DHT22;60000;51.030;7.024;2023-09-18T05:55:45;19.58;85.83
72128;DHT22;60000;51.030;7.024;2023-09-18T05:58:10;19.60;85.76
72128;DHT22;60000;51.030;7.024;2023-09-18T06:00:36;19.63;85.66
72128;DHT22;60000;51.030;7.024;2023-09-18T06:03:02;19.63;85.57
72128;DHT22;60000;51.030;7.024;2023-09-18T06:05:28;19.63;85.56
72128;DHT22;60000;51.030;7.024;2023-09-18T06:07:56;19.64;85.57
72128;DHT22;60000;51.030;7.024;2023-09-18T06:10:21;19.65;85.47
72128;DHT22;60000;51.030;7.024;2023-09-18T06:12:46;19.65;85.46
72128;DHT22;60000;51.030;7.024;2023-09-18T06:15:12;19.67;85.31
72128;DHT22;60000;51.030;7.024;2023-09-18T06:17:42;19.70;85.18
72128;DHT22;60000;51.030;7.024;2023-09-18T06:20:08;19.73;85.04
72128;DHT22;60000;51.030;7.024;2023-09-18T06:22:38;19.73;84.84
72128;DHT22;60000;51.030;7.024;2023-09-18T06:25:07;19.77;84.70
72128;DHT22;60000;51.030;7.024;2023-09-18T06:27:35;19.82;84.34
72128;DHT22;60000;51.030;7.024;2023-09-18T06:30:02;19.84;84.10
72128;DHT22;60000;51.030;7.024;2023-09-18T06:32:27;19.89;83.83
72128;DHT22;60000;51.030;7.024;2023-09-18T06:34:53;19.92;83.80
72128;DHT22;60000;51.030;7.024;2023-09-18T06:37:18;19.95;83.55
72128;DHT22;60000;51.030;7.024;2023-09-18T06:39:44;20.01;83.42
72128;DHT22;60000;51.030;7.024;2023-09-18T06:42:09;20.01;83.19
72128;DHT22;60000;51.030;7.024;2023-09-18T06:44:34;20.02;83.02
72128;DHT22;60000;51.030;7.024;2023-09-18T06:47:00;20.08;82.74
72128;DHT22;60000;51.030;7.024;2023-09-18T06:49:25;20.12;82.55
72128;DHT22;60000;51.030;7.024;2023-09-18T06:51:50;20.16;82.28
72128;DHT22;60000;51.030;7.024;2023-09-18T06:54:16;20.22;81.94
72128;DHT22;60000;51.030;7.024;2023-09-18T06:56:41;20.26;81.85
72128;DHT22;60000;51.030;7.024;2023-09-18T06:59:08;20.30;81.96
72128;DHT22;60000;51.030;7.024;2023-09-18T07:01:33;20.35;81.94
72128;DHT22;60000;51.030;7.024;2023-09-18T07:03:59;20.39;81.78
72128;DHT22;60000;51.030;7.024;2023-09-18T07:06:25;20.42;81.80
72128;DHT22;60000;51.030;7.024;2023-09-18T07:08:50;20.47;81.43
72128;DHT22;60000;51.030;7.024;2023-09-18T07:11:17;20.50;81.37
72128;DHT22;60000;51.030;7.024;2023-09-18T07:13:42;20.57;81.11
72128;DHT22;60000;51.030;7.024;2023-09-18T07:16:09;20.57;81.03
72128;DHT22;60000;51.030;7.024;2023-09-18T07:18:34;20.62;80.87
72128;DHT22;60000;51.030;7.024;2023-09-18T07:20:59;20.69;80.69
72128;DHT22;60000;51.030;7.024;2023-09-18T07:23:25;20.87;80.39
72128;DHT22;60000;51.030;7.024;2023-09-18T07:25:52;20.94;79.71
72128;DHT22;60000;51.030;7.024;2023-09-18T07:28:18;21.00;79.46
72128;DHT22;60000;51.030;7.024;2023-09-18T07:30:45;21.04;78.79
72128;DHT22;60000;51.030;7.024;2023-09-18T07:33:11;21.14;78.98
72128;DHT22;60000;51.030;7.024;2023-09-18T07:35:37;21.21;78.55
72128;DHT22;60000;51.030;7.024;2023-09-18T07:38:03;21.22;78.39
72128;DHT22;60000;51.030;7.024;2023-09-18T07:40:29;21.27;77.93
72128;DHT22;60000;51.030;7.024;2023-09-18T07:42:54;21.25;77.51
72128;DHT22;60000;51.030;7.024;2023-09-18T07:45:19;21.22;77.00
72128;DHT22;60000;51.030;7.024;2023-09-18T07:47:45;21.22;77.19
72128;DHT22;60000;51.030;7.024;2023-09-18T07:50:10;21.28;76.88
72128;DHT22;60000;51.030;7.024;2023-09-18T07:52:35;21.28;76.66
72128;DHT22;60000;51.030;7.024;2023-09-18T07:55:03;21.28;76.74
72128;DHT22;60000;51.030;7.024;2023-09-18T07:57:28;21.25;76.48
72128;DHT22;60000;51.030;7.024;2023-09-18T07:59:55;21.25;76.80
72128;DHT22;60000;51.030;7.024;2023-09-18T08:02:20;21.30;76.83
72128;DHT22;60000;51.030;7.024;2023-09-18T08:04:47;21.30;76.89
72128;DHT22;60000;51.030;7.024;2023-09-18T08:07:12;21.27;76.46
72128;DHT22;60000;51.030;7.024;2023-09-18T08:09:37;21.25;76.33
72128;DHT22;60000;51.030;7.024;2023-09-18T08:12:04;21.25;76.46
72128;DHT22;60000;51.030;7.024;2023-09-18T08:14:30;21.25;76.31
72128;DHT22;60000;51.030;7.024;2023-09-18T08:16:56;21.21;76.13
72128;DHT22;60000;51.030;7.024;2023-09-18T08:19:22;21.21;76.22
72128;DHT22;60000;51.030;7.024;2023-09-18T08:21:48;21.21;76.06
72128;DHT22;60000;51.030;7.024;2023-09-18T08:24:14;21.25;76.06
72128;DHT22;60000;51.030;7.024;2023-09-18T08:26:39;21.27;75.79
72128;DHT22;60000;51.030;7.024;2023-09-18T08:29:04;21.32;75.37
72128;DHT22;60000;51.030;7.024;2023-09-18T08:31:30;21.31;75.40
72128;DHT22;60000;51.030;7.024;2023-09-18T08:33:57;21.38;75.30
72128;DHT22;60000;51.030;7.024;2023-09-18T08:36:22;21.39;74.97
72128;DHT22;60000;51.030;7.024;2023-09-18T08:38:48;21.39;74.80
72128;DHT22;60000;51.030;7.024;2023-09-18T08:41:14;21.41;74.77
72128;DHT22;60000;51.030;7.024;2023-09-18T08:43:43;21.41;74.54
72128;DHT22;60000;51.030;7.024;2023-09-18T08:46:09;21.43;74.58
72128;DHT22;60000;51.030;7.024;2023-09-18T08:48:35;21.46;74.39
72128;DHT22;60000;51.030;7.024;2023-09-18T08:51:02;21.48;74.46
72128;DHT22;60000;51.030;7.024;2023-09-18T08:53:31;21.52;74.33
72128;DHT22;60000;51.030;7.024;2023-09-18T08:55:57;21.55;74.33
72128;DHT22;60000;51.030;7.024;2023-09-18T08:58:25;21.56;74.08
72128;DHT22;60000;51.030;7.024;2023-09-18T09:00:51;21.58;73.84
72128;DHT22;60000;51.030;7.024;2023-09-18T09:03:17;21.69;74.28
72128;DHT22;60000;51.030;7.024;2023-09-18T09:05:43;21.85;73.60
72128;DHT22;60000;51.030;7.024;2023-09-18T09:08:08;21.92;73.17
72128;DHT22;60000;51.030;7.024;2023-09-18T09:10:33;21.94;72.52
72128;DHT22;60000;51.030;7.024;2023-09-18T09:12:59;21.92;72.28
72128;DHT22;60000;51.030;7.024;2023-09-18T09:15:28;21.93;72.20
72128;DHT22;60000;51.030;7.024;2023-09-18T09:18:05;21.94;72.10
72128;DHT22;60000;51.030;7.024;2023-09-18T09:20:31;21.94;72.14
72128;DHT22;60000;51.030;7.024;2023-09-18T09:23:01;21.96;72.47
72128;DHT22;60000;51.030;7.024;2023-09-18T09:25:28;21.99;72.38
72128;DHT22;60000;51.030;7.024;2023-09-18T09:27:59;22.00;72.20
72128;DHT22;60000;51.030;7.024;2023-09-18T09:30:27;22.00;71.61
72128;DHT22;60000;51.030;7.024;2023-09-18T09:32:56;21.99;71.67
72128;DHT22;60000;51.030;7.024;2023-09-18T09:35:23;21.97;71.67
72128;DHT22;60000;51.030;7.024;2023-09-18T09:37:52;22.01;71.73
72128;DHT22;60000;51.030;7.024;2023-09-18T09:40:20;22.10;71.58
72128;DHT22;60000;51.030;7.024;2023-09-18T09:42:45;22.13;71.50
72128;DHT22;60000;51.030;7.024;2023-09-18T09:45:14;22.20;71.24
72128;DHT22;60000;51.030;7.024;2023-09-18T09:47:43;22.31;71.42
72128;DHT22;60000;51.030;7.024;2023-09-18T09:50:14;22.31;70.42
72128;DHT22;60000;51.030;7.024;2023-09-18T09:52:49;22.33;70.14
72128;DHT22;60000;51.030;7.024;2023-09-18T09:55:28;22.37;70.00
72128;DHT22;60000;51.030;7.024;2023-09-18T09:57:56;22.41;70.00
72128;DHT22;60000;51.030;7.024;2023-09-18T10:00:25;22.47;69.52
72128;DHT22;60000;51.030;7.024;2023-09-18T10:03:01;22.58;69.89
72128;DHT22;60000;51.030;7.024;2023-09-18T10:05:32;22.60;69.49
72128;DHT22;60000;51.030;7.024;2023-09-18T10:08:02;22.73;69.90
72128;DHT22;60000;51.030;7.024;2023-09-18T10:10:35;22.76;69.03
72128;DHT22;60000;51.030;7.024;2023-09-18T10:13:07;22.91;69.57
72128;DHT22;60000;51.030;7.024;2023-09-18T10:15:34;23.20;68.46
72128;DHT22;60000;51.030;7.024;2023-09-18T10:18:05;23.42;67.47
72128;DHT22;60000;51.030;7.024;2023-09-18T10:20:37;23.54;66.36
72128;DHT22;60000;51.030;7.024;2023-09-18T10:23:03;23.78;66.09
72128;DHT22;60000;51.030;7.024;2023-09-18T10:25:31;24.04;65.72
72128;DHT22;60000;51.030;7.024;2023-09-18T10:27:58;24.35;64.65
72128;DHT22;60000;51.030;7.024;2023-09-18T10:30:27;24.42;63.35
72128;DHT22;60000;51.030;7.024;2023-09-18T10:32:52;24.56;63.19
72128;DHT22;60000;51.030;7.024;2023-09-18T10:35:18;24.73;63.25
72128;DHT22;60000;51.030;7.024;2023-09-18T10:37:45;24.82;61.23
72128;DHT22;60000;51.030;7.024;2023-09-18T10:40:12;25.17;62.65
72128;DHT22;60000;51.030;7.024;2023-09-18T10:42:38;25.46;61.86
72128;DHT22;60000;51.030;7.024;2023-09-18T10:45:05;25.69;60.77
72128;DHT22;60000;51.030;7.024;2023-09-18T10:47:32;25.90;59.46
72128;DHT22;60000;51.030;7.024;2023-09-18T10:49:58;25.90;58.53
72128;DHT22;60000;51.030;7.024;2023-09-18T10:52:24;25.83;57.14
72128;DHT22;60000;51.030;7.024;2023-09-18T10:54:49;25.97;58.38
72128;DHT22;60000;51.030;7.024;2023-09-18T10:57:15;26.22;59.03
72128;DHT22;60000;51.030;7.024;2023-09-18T10:59:45;26.13;57.73
72128;DHT22;60000;51.030;7.024;2023-09-18T11:02:14;25.99;57.74
72128;DHT22;60000;51.030;7.024;2023-09-18T11:04:41;25.92;57.77
72128;DHT22;60000;51.030;7.024;2023-09-18T11:07:07;26.03;57.87
72128;DHT22;60000;51.030;7.024;2023-09-18T11:09:43;26.09;58.01
72128;DHT22;60000;51.030;7.024;2023-09-18T11:12:10;25.97;57.33
72128;DHT22;60000;51.030;7.024;2023-09-18T11:14:44;25.89;57.41
72128;DHT22;60000;51.030;7.024;2023-09-18T11:17:36;25.97;57.80
72128;DHT22;60000;51.030;7.024;2023-09-18T11:28:01;26.09;56.13
72128;DHT22;60000;51.030;7.024;2023-09-18T11:30:28;26.16;55.43
72128;DHT22;60000;51.030;7.024;2023-09-18T11:32:54;25.93;54.68
72128;DHT22;60000;51.030;7.024;2023-09-18T11:35:21;25.96;55.31
72128;DHT22;60000;51.030;7.024;2023-09-18T11:37:46;26.03;55.65
72128;DHT22;60000;51.030;7.024;2023-09-18T11:40:32;26.00;54.51
72128;DHT22;60000;51.030;7.024;2023-09-18T11:43:26;25.86;54.68
72128;DHT22;60000;51.030;7.024;2023-09-18T11:45:53;25.69;54.43
72128;DHT22;60000;51.030;7.024;2023-09-18T11:48:20;25.62;55.45
72128;DHT22;60000;51.030;7.024;2023-09-18T11:50:46;25.64;54.49
72128;DHT22;60000;51.030;7.024;2023-09-18T11:53:16;25.71;55.21
72128;DHT22;60000;51.030;7.024;2023-09-18T11:55:43;25.68;54.63
72128;DHT22;60000;51.030;7.024;2023-09-18T11:58:08;25.58;54.63
72128;DHT22;60000;51.030;7.024;2023-09-18T12:00:35;25.45;55.20
72128;DHT22;60000;51.030;7.024;2023-09-18T12:03:22;25.49;55.51
72128;DHT22;60000;51.030;7.024;2023-09-18T12:06:01;25.61;56.17
72128;DHT22;60000;51.030;7.024;2023-09-18T12:08:29;25.55;55.54
72128;DHT22;60000;51.030;7.024;2023-09-18T12:10:55;25.59;55.56
72128;DHT22;60000;51.030;7.024;2023-09-18T12:13:21;25.64;55.68
72128;DHT22;60000;51.030;7.024;2023-09-18T12:15:48;25.61;55.37
72128;DHT22;60000;51.030;7.024;2023-09-18T12:18:15;25.52;55.09
72128;DHT22;60000;51.030;7.024;2023-09-18T12:20:48;25.44;55.25
72128;DHT22;60000;51.030;7.024;2023-09-18T12:23:17;25.42;56.15
72128;DHT22;60000;51.030;7.024;2023-09-18T12:25:48;25.41;53.66
72128;DHT22;60000;51.030;7.024;2023-09-18T12:28:14;25.48;53.18
72128;DHT22;60000;51.030;7.024;2023-09-18T12:30:41;25.45;54.41
72128;DHT22;60000;51.030;7.024;2023-09-18T12:33:06;25.55;53.90
72128;DHT22;60000;51.030;7.024;2023-09-18T12:35:32;25.54;52.86
72128;DHT22;60000;51.030;7.024;2023-09-18T12:37:58;25.65;53.68
72128;DHT22;60000;51.030;7.024;2023-09-18T12:40:29;25.68;53.32
72128;DHT22;60000;51.030;7.024;2023-09-18T12:42:59;25.72;53.07
72128;DHT22;60000;51.030;7.024;2023-09-18T12:45:25;25.73;52.68
72128;DHT22;60000;51.030;7.024;2023-09-18T12:47:53;25.79;52.25
72128;DHT22;60000;51.030;7.024;2023-09-18T12:50:19;25.90;53.15
72128;DHT22;60000;51.030;7.024;2023-09-18T12:52:47;25.93;52.87
72128;DHT22;60000;51.030;7.024;2023-09-18T12:55:25;25.93;51.95
72128;DHT22;60000;51.030;7.024;2023-09-18T12:57:51;25.94;51.94
72128;DHT22;60000;51.030;7.024;2023-09-18T13:00:21;25.97;51.78
72128;DHT22;60000;51.030;7.024;2023-09-18T13:02:52;25.94;50.87
72128;DHT22;60000;51.030;7.024;2023-09-18T13:05:21;25.92;51.14
72128;DHT22;60000;51.030;7.024;2023-09-18T13:07:50;25.90;51.93
72128;DHT22;60000;51.030;7.024;2023-09-18T13:10:16;25.92;51.52
72128;DHT22;60000;51.030;7.024;2023-09-18T13:15:07;25.73;50.54
72128;DHT22;60000;51.030;7.024;2023-09-18T13:17:44;25.65;50.69
72128;DHT22;60000;51.030;7.024;2023-09-18T13:20:15;25.69;51.59
72128;DHT22;60000;51.030;7.024;2023-09-18T13:22:42;25.79;51.58
72128;DHT22;60000;51.030;7.024;2023-09-18T13:25:10;25.82;49.93
72128;DHT22;60000;51.030;7.024;2023-09-18T13:27:37;25.89;50.10
72128;DHT22;60000;51.030;7.024;2023-09-18T13:30:02;25.90;48.87
72128;DHT22;60000;51.030;7.024;2023-09-18T13:32:36;25.94;49.14
72128;DHT22;60000;51.030;7.024;2023-09-18T13:35:03;26.04;49.34
72128;DHT22;60000;51.030;7.024;2023-09-18T13:37:30;26.04;47.70
72128;DHT22;60000;51.030;7.024;2023-09-18T13:39:56;26.03;47.48
72128;DHT22;60000;51.030;7.024;2023-09-18T13:42:22;26.03;47.28
72128;DHT22;60000;51.030;7.024;2023-09-18T13:44:47;26.03;47.45
72128;DHT22;60000;51.030;7.024;2023-09-18T13:47:14;26.04;47.97
72128;DHT22;60000;51.030;7.024;2023-09-18T13:49:40;25.96;48.11
72128;DHT22;60000;51.030;7.024;2023-09-18T13:52:05;25.88;48.68
72128;DHT22;60000;51.030;7.024;2023-09-18T13:54:30;25.81;49.00
72128;DHT22;60000;51.030;7.024;2023-09-18T13:56:56;25.88;49.65
72128;DHT22;60000;51.030;7.024;2023-09-18T13:59:21;25.88;48.93
72128;DHT22;60000;51.030;7.024;2023-09-18T14:01:46;25.90;49.19
72128;DHT22;60000;51.030;7.024;2023-09-18T14:04:12;25.83;48.54
72128;DHT22;60000;51.030;7.024;2023-09-18T14:06:38;25.81;48.57
72128;DHT22;60000;51.030;7.024;2023-09-18T14:09:04;25.78;49.22
72128;DHT22;60000;51.030;7.024;2023-09-18T14:11:31;25.64;48.32
72128;DHT22;60000;51.030;7.024;2023-09-18T14:13:56;25.58;48.54
72128;DHT22;60000;51.030;7.024;2023-09-18T14:16:21;25.57;47.98
72128;DHT22;60000;51.030;7.024;2023-09-18T14:18:47;25.46;48.49
72128;DHT22;60000;51.030;7.024;2023-09-18T14:21:12;25.45;49.78
72128;DHT22;60000;51.030;7.024;2023-09-18T14:23:37;25.57;49.61
72128;DHT22;60000;51.030;7.024;2023-09-18T14:26:03;25.61;49.10
72128;DHT22;60000;51.030;7.024;2023-09-18T14:28:28;25.62;49.02
72128;DHT22;60000;51.030;7.024;2023-09-18T14:30:54;25.59;48.50
72128;DHT22;60000;51.030;7.024;2023-09-18T14:33:19;25.51;48.41
72128;DHT22;60000;51.030;7.024;2023-09-18T14:35:44;25.52;48.58
72128;DHT22;60000;51.030;7.024;2023-09-18T14:38:10;25.57;48.11
72128;DHT22;60000;51.030;7.024;2023-09-18T14:40:35;25.59;48.45
72128;DHT22;60000;51.030;7.024;2023-09-18T14:43:00;25.64;48.01
72128;DHT22;60000;51.030;7.024;2023-09-18T14:45:26;25.64;47.13
72128;DHT22;60000;51.030;7.024;2023-09-18T14:47:51;25.64;47.83
72128;DHT22;60000;51.030;7.024;2023-09-18T14:50:17;25.71;46.52
72128;DHT22;60000;51.030;7.024;2023-09-18T14:52:43;25.69;46.83
72128;DHT22;60000;51.030;7.024;2023-09-18T14:55:08;25.54;47.38
72128;DHT22;60000;51.030;7.024;2023-09-18T14:57:33;25.55;48.63
72128;DHT22;60000;51.030;7.024;2023-09-18T14:59:59;25.48;49.16
72128;DHT22;60000;51.030;7.024;2023-09-18T15:02:24;25.39;50.03
72128;DHT22;60000;51.030;7.024;2023-09-18T15:04:55;25.31;50.26
72128;DHT22;60000;51.030;7.024;2023-09-18T15:07:20;25.23;50.43
72128;DHT22;60000;51.030;7.024;2023-09-18T15:09:45;25.07;50.27
72128;DHT22;60000;51.030;7.024;2023-09-18T15:12:11;25.00;50.38
72128;DHT22;60000;51.030;7.024;2023-09-18T15:14:37;24.93;50.11
72128;DHT22;60000;51.030;7.024;2023-09-18T15:17:02;24.93;49.53
72128;DHT22;60000;51.030;7.024;2023-09-18T15:19:28;24.97;50.02
72128;DHT22;60000;51.030;7.024;2023-09-18T15:21:53;25.03;49.31
72128;DHT22;60000;51.030;7.024;2023-09-18T15:24:20;25.10;49.39
72128;DHT22;60000;51.030;7.024;2023-09-18T15:26:46;25.13;49.06
72128;DHT22;60000;51.030;7.024;2023-09-18T15:29:11;25.15;49.47
72128;DHT22;60000;51.030;7.024;2023-09-18T15:31:37;25.18;49.59
72128;DHT22;60000;51.030;7.024;2023-09-18T15:34:03;25.10;49.30
72128;DHT22;60000;51.030;7.024;2023-09-18T15:36:29;24.97;47.63
72128;DHT22;60000;51.030;7.024;2023-09-18T15:38:56;24.96;47.88
72128;DHT22;60000;51.030;7.024;2023-09-18T15:41:21;24.96;48.18